aviador You're here:

KMNI Decoded Metar

MANNING in SC, USA
Report Time2017-07-25 20:15:00
UTC Time2017-07-25 20:34:44
Flight Rules vfr VFR
Wind280° at 04 kt
W.Decomp.*RWY 20: 0.3 kt HW 4.0 kt RCW
W.Rank280° ranks 27
Current wind is below 280° avg. (5.4)
Visibility9999 m
Phenomena:N/A
Clouds:Scattered 040 Hf
Scattered 100 Hf
Expected CloudBase > 3,200 ft AGL from Temp-Dew spread
CeilingNone
Temp33°C (ISA +18)
Dew Point25°C (63% RH)
Heat Index40.6°C
QNH1017 hPa
Density Alt2,461 ft
Elevation105 ft
Report Wrong Elevation
Raw Report
KMNI 252015Z AUTO 28004KT 10SM SCT040 SCT100 33/25 A3003 RMK
AO2=

Extra information for KMNI:More info

Metar Taf Metar & Taf Last 4 Metars F.Rules Stats Wind Profile Meteogram Temp Stats Airport Information Weather charts Add Link Nearby VenuesMetar ALERT Operation Metar Decoded Social comments

AIRNAV info for KMNI